sensor_id;sensor_type;location;lat;lon;timestamp;P1;durP1;ratioP1;P2;durP2;ratioP2
1837;SDS011;918;50.796;6.772;2023-07-13T00:01:21;1.83;;;1.30;;
1837;SDS011;918;50.796;6.772;2023-07-13T00:03:47;2.00;;;1.20;;
1837;SDS011;918;50.796;6.772;2023-07-13T00:06:12;3.77;;;1.43;;
1837;SDS011;918;50.796;6.772;2023-07-13T00:08:37;2.53;;;1.13;;
1837;SDS011;918;50.796;6.772;2023-07-13T00:11:03;2.30;;;1.10;;
1837;SDS011;918;50.796;6.772;2023-07-13T00:13:29;5.77;;;1.83;;
1837;SDS011;918;50.796;6.772;2023-07-13T00:15:56;2.20;;;1.60;;
1837;SDS011;918;50.796;6.772;2023-07-13T00:18:22;2.13;;;1.70;;
1837;SDS011;918;50.796;6.772;2023-07-13T00:20:47;2.00;;;1.27;;
1837;SDS011;918;50.796;6.772;2023-07-13T00:23:13;2.87;;;1.30;;
1837;SDS011;918;50.796;6.772;2023-07-13T00:25:38;1.67;;;1.43;;
1837;SDS011;918;50.796;6.772;2023-07-13T00:28:03;2.77;;;1.20;;
1837;SDS011;918;50.796;6.772;2023-07-13T00:30:29;1.60;;;1.40;;
1837;SDS011;918;50.796;6.772;2023-07-13T00:32:54;2.10;;;1.17;;
1837;SDS011;918;50.796;6.772;2023-07-13T00:35:19;1.70;;;1.40;;
1837;SDS011;918;50.796;6.772;2023-07-13T00:37:45;3.40;;;1.70;;
1837;SDS011;918;50.796;6.772;2023-07-13T00:40:11;2.67;;;1.30;;
1837;SDS011;918;50.796;6.772;2023-07-13T00:42:38;2.80;;;1.40;;
1837;SDS011;918;50.796;6.772;2023-07-13T00:47:38;3.23;;;1.40;;
1837;SDS011;918;50.796;6.772;2023-07-13T00:50:04;3.20;;;1.87;;
1837;SDS011;918;50.796;6.772;2023-07-13T00:52:32;1.63;;;1.53;;
1837;SDS011;918;50.796;6.772;2023-07-13T00:54:58;2.77;;;1.63;;
1837;SDS011;918;50.796;6.772;2023-07-13T00:57:24;3.43;;;1.53;;
1837;SDS011;918;50.796;6.772;2023-07-13T00:59:52;1.33;;;1.17;;
1837;SDS011;918;50.796;6.772;2023-07-13T01:02:20;3.97;;;1.60;;
1837;SDS011;918;50.796;6.772;2023-07-13T01:04:46;6.17;;;1.20;;
1837;SDS011;918;50.796;6.772;2023-07-13T01:07:12;1.70;;;1.20;;
1837;SDS011;918;50.796;6.772;2023-07-13T01:09:38;2.70;;;1.70;;
1837;SDS011;918;50.796;6.772;2023-07-13T01:12:03;6.30;;;2.27;;
1837;SDS011;918;50.796;6.772;2023-07-13T01:14:29;2.07;;;1.87;;
1837;SDS011;918;50.796;6.772;2023-07-13T01:16:54;2.70;;;1.40;;
1837;SDS011;918;50.796;6.772;2023-07-13T01:22:03;4.57;;;1.67;;
1837;SDS011;918;50.796;6.772;2023-07-13T01:24:33;2.63;;;1.40;;
1837;SDS011;918;50.796;6.772;2023-07-13T01:26:59;2.50;;;1.23;;
1837;SDS011;918;50.796;6.772;2023-07-13T01:29:25;1.47;;;1.33;;
1837;SDS011;918;50.796;6.772;2023-07-13T01:31:50;3.97;;;1.93;;
1837;SDS011;918;50.796;6.772;2023-07-13T01:34:15;3.17;;;1.43;;
1837;SDS011;918;50.796;6.772;2023-07-13T01:36:40;3.20;;;1.50;;
1837;SDS011;918;50.796;6.772;2023-07-13T01:39:05;3.97;;;1.90;;
1837;SDS011;918;50.796;6.772;2023-07-13T01:41:31;2.90;;;1.80;;
1837;SDS011;918;50.796;6.772;2023-07-13T01:43:56;1.97;;;1.60;;
1837;SDS011;918;50.796;6.772;2023-07-13T01:46:21;3.27;;;2.03;;
1837;SDS011;918;50.796;6.772;2023-07-13T01:48:47;2.20;;;1.30;;
1837;SDS011;918;50.796;6.772;2023-07-13T01:51:12;3.50;;;1.73;;
1837;SDS011;918;50.796;6.772;2023-07-13T01:53:38;3.43;;;1.87;;
1837;SDS011;918;50.796;6.772;2023-07-13T01:56:03;1.87;;;1.57;;
1837;SDS011;918;50.796;6.772;2023-07-13T01:58:29;2.93;;;1.73;;
1837;SDS011;918;50.796;6.772;2023-07-13T02:00:54;2.10;;;1.57;;
1837;SDS011;918;50.796;6.772;2023-07-13T02:03:19;4.53;;;1.70;;
1837;SDS011;918;50.796;6.772;2023-07-13T02:05:45;3.80;;;1.47;;
1837;SDS011;918;50.796;6.772;2023-07-13T02:08:10;2.50;;;1.50;;
1837;SDS011;918;50.796;6.772;2023-07-13T02:10:36;2.63;;;1.47;;
1837;SDS011;918;50.796;6.772;2023-07-13T02:13:02;3.50;;;1.77;;
1837;SDS011;918;50.796;6.772;2023-07-13T02:15:29;3.40;;;1.53;;
1837;SDS011;918;50.796;6.772;2023-07-13T02:17:54;4.20;;;1.87;;
1837;SDS011;918;50.796;6.772;2023-07-13T02:20:19;2.57;;;1.73;;
1837;SDS011;918;50.796;6.772;2023-07-13T02:22:44;2.57;;;1.40;;
1837;SDS011;918;50.796;6.772;2023-07-13T02:25:10;2.30;;;1.60;;
1837;SDS011;918;50.796;6.772;2023-07-13T02:27:35;2.83;;;1.50;;
1837;SDS011;918;50.796;6.772;2023-07-13T02:30:00;5.00;;;1.67;;
1837;SDS011;918;50.796;6.772;2023-07-13T02:32:26;2.67;;;1.53;;
1837;SDS011;918;50.796;6.772;2023-07-13T02:34:51;6.80;;;2.10;;
1837;SDS011;918;50.796;6.772;2023-07-13T02:37:17;2.00;;;1.37;;
1837;SDS011;918;50.796;6.772;2023-07-13T02:39:43;4.03;;;1.30;;
1837;SDS011;918;50.796;6.772;2023-07-13T02:42:08;2.47;;;1.47;;
1837;SDS011;918;50.796;6.772;2023-07-13T02:44:33;1.93;;;1.50;;
1837;SDS011;918;50.796;6.772;2023-07-13T02:46:58;2.20;;;1.40;;
1837;SDS011;918;50.796;6.772;2023-07-13T02:49:24;4.10;;;1.30;;
1837;SDS011;918;50.796;6.772;2023-07-13T02:51:49;1.73;;;1.30;;
1837;SDS011;918;50.796;6.772;2023-07-13T02:54:14;2.53;;;1.50;;
1837;SDS011;918;50.796;6.772;2023-07-13T02:56:40;2.43;;;1.57;;
1837;SDS011;918;50.796;6.772;2023-07-13T02:59:05;1.77;;;1.63;;
1837;SDS011;918;50.796;6.772;2023-07-13T03:01:30;3.20;;;1.67;;
1837;SDS011;918;50.796;6.772;2023-07-13T03:04:00;2.63;;;1.73;;
1837;SDS011;918;50.796;6.772;2023-07-13T03:06:25;1.93;;;1.43;;
1837;SDS011;918;50.796;6.772;2023-07-13T03:08:50;3.57;;;1.87;;
1837;SDS011;918;50.796;6.772;2023-07-13T03:11:19;3.37;;;1.93;;
1837;SDS011;918;50.796;6.772;2023-07-13T03:13:45;3.10;;;1.73;;
1837;SDS011;918;50.796;6.772;2023-07-13T03:16:11;1.70;;;1.60;;
1837;SDS011;918;50.796;6.772;2023-07-13T03:18:36;3.37;;;1.73;;
1837;SDS011;918;50.796;6.772;2023-07-13T03:21:02;3.00;;;1.50;;
1837;SDS011;918;50.796;6.772;2023-07-13T03:23:28;4.00;;;1.73;;
1837;SDS011;918;50.796;6.772;2023-07-13T03:26:07;2.80;;;1.80;;
1837;SDS011;918;50.796;6.772;2023-07-13T03:28:34;3.80;;;1.53;;
1837;SDS011;918;50.796;6.772;2023-07-13T03:31:00;2.10;;;1.40;;
1837;SDS011;918;50.796;6.772;2023-07-13T03:33:30;2.90;;;1.37;;
1837;SDS011;918;50.796;6.772;2023-07-13T03:35:55;2.50;;;2.20;;
1837;SDS011;918;50.796;6.772;2023-07-13T03:38:21;3.50;;;1.70;;
1837;SDS011;918;50.796;6.772;2023-07-13T03:40:46;3.03;;;1.73;;
1837;SDS011;918;50.796;6.772;2023-07-13T03:43:11;3.40;;;1.60;;
1837;SDS011;918;50.796;6.772;2023-07-13T03:45:40;9.07;;;2.30;;
1837;SDS011;918;50.796;6.772;2023-07-13T03:48:05;8.63;;;1.83;;
1837;SDS011;918;50.796;6.772;2023-07-13T03:50:30;2.10;;;1.83;;
1837;SDS011;918;50.796;6.772;2023-07-13T03:52:57;2.60;;;1.57;;
1837;SDS011;918;50.796;6.772;2023-07-13T03:55:22;3.27;;;1.60;;
1837;SDS011;918;50.796;6.772;2023-07-13T03:57:52;3.00;;;1.80;;
1837;SDS011;918;50.796;6.772;2023-07-13T04:00:19;2.70;;;2.37;;
1837;SDS011;918;50.796;6.772;2023-07-13T04:02:44;8.67;;;2.03;;
1837;SDS011;918;50.796;6.772;2023-07-13T04:05:11;5.13;;;2.33;;
1837;SDS011;918;50.796;6.772;2023-07-13T04:07:37;4.00;;;1.90;;
1837;SDS011;918;50.796;6.772;2023-07-13T04:10:02;2.20;;;2.00;;
1837;SDS011;918;50.796;6.772;2023-07-13T04:12:28;5.47;;;2.70;;
1837;SDS011;918;50.796;6.772;2023-07-13T04:14:53;6.27;;;2.50;;
1837;SDS011;918;50.796;6.772;2023-07-13T04:17:19;3.43;;;2.10;;
1837;SDS011;918;50.796;6.772;2023-07-13T04:19:44;4.43;;;2.00;;
1837;SDS011;918;50.796;6.772;2023-07-13T04:22:09;10.93;;;3.90;;
1837;SDS011;918;50.796;6.772;2023-07-13T04:24:34;11.53;;;5.30;;
1837;SDS011;918;50.796;6.772;2023-07-13T04:27:00;16.27;;;4.63;;
1837;SDS011;918;50.796;6.772;2023-07-13T04:29:28;14.63;;;4.63;;
1837;SDS011;918;50.796;6.772;2023-07-13T04:31:53;12.03;;;4.40;;
1837;SDS011;918;50.796;6.772;2023-07-13T04:34:18;20.10;;;5.10;;
1837;SDS011;918;50.796;6.772;2023-07-13T04:36:43;9.23;;;3.30;;
1837;SDS011;918;50.796;6.772;2023-07-13T04:39:09;3.20;;;1.90;;
1837;SDS011;918;50.796;6.772;2023-07-13T04:41:34;3.50;;;1.93;;
1837;SDS011;918;50.796;6.772;2023-07-13T04:43:59;3.30;;;1.90;;
1837;SDS011;918;50.796;6.772;2023-07-13T04:46:24;4.30;;;1.83;;
1837;SDS011;918;50.796;6.772;2023-07-13T04:48:50;3.23;;;1.77;;
1837;SDS011;918;50.796;6.772;2023-07-13T04:51:18;2.47;;;1.83;;
1837;SDS011;918;50.796;6.772;2023-07-13T04:53:43;3.00;;;1.90;;
1837;SDS011;918;50.796;6.772;2023-07-13T04:56:08;2.43;;;1.70;;
1837;SDS011;918;50.796;6.772;2023-07-13T04:58:34;4.83;;;1.83;;
1837;SDS011;918;50.796;6.772;2023-07-13T05:01:03;3.27;;;1.90;;
1837;SDS011;918;50.796;6.772;2023-07-13T05:03:29;3.63;;;1.90;;
1837;SDS011;918;50.796;6.772;2023-07-13T05:05:58;4.03;;;1.60;;
1837;SDS011;918;50.796;6.772;2023-07-13T05:08:24;3.40;;;1.57;;
1837;SDS011;918;50.796;6.772;2023-07-13T05:10:50;2.03;;;1.50;;
1837;SDS011;918;50.796;6.772;2023-07-13T05:13:16;2.50;;;1.47;;
1837;SDS011;918;50.796;6.772;2023-07-13T05:15:41;3.10;;;1.30;;
1837;SDS011;918;50.796;6.772;2023-07-13T05:18:07;5.10;;;1.60;;
1837;SDS011;918;50.796;6.772;2023-07-13T05:20:32;2.73;;;1.87;;
1837;SDS011;918;50.796;6.772;2023-07-13T05:22:57;4.07;;;1.73;;
1837;SDS011;918;50.796;6.772;2023-07-13T05:25:22;3.87;;;1.80;;
1837;SDS011;918;50.796;6.772;2023-07-13T05:27:48;5.20;;;1.60;;
1837;SDS011;918;50.796;6.772;2023-07-13T05:30:13;2.60;;;1.40;;
1837;SDS011;918;50.796;6.772;2023-07-13T05:32:39;3.00;;;1.33;;
1837;SDS011;918;50.796;6.772;2023-07-13T05:35:04;2.20;;;1.43;;
1837;SDS011;918;50.796;6.772;2023-07-13T05:37:30;3.37;;;1.40;;
1837;SDS011;918;50.796;6.772;2023-07-13T05:39:55;8.80;;;1.67;;
1837;SDS011;918;50.796;6.772;2023-07-13T05:42:21;3.87;;;1.37;;
1837;SDS011;918;50.796;6.772;2023-07-13T05:44:46;3.13;;;1.70;;
1837;SDS011;918;50.796;6.772;2023-07-13T05:47:11;2.73;;;1.97;;
1837;SDS011;918;50.796;6.772;2023-07-13T05:49:39;3.53;;;1.57;;
1837;SDS011;918;50.796;6.772;2023-07-13T05:52:04;3.70;;;1.47;;
1837;SDS011;918;50.796;6.772;2023-07-13T05:54:30;1.90;;;1.10;;
1837;SDS011;918;50.796;6.772;2023-07-13T05:56:55;3.53;;;1.63;;
1837;SDS011;918;50.796;6.772;2023-07-13T05:59:20;1.53;;;1.17;;
1837;SDS011;918;50.796;6.772;2023-07-13T06:01:46;2.30;;;1.47;;
1837;SDS011;918;50.796;6.772;2023-07-13T06:04:11;3.30;;;1.37;;
1837;SDS011;918;50.796;6.772;2023-07-13T06:06:36;3.33;;;1.47;;
1837;SDS011;918;50.796;6.772;2023-07-13T06:09:01;3.50;;;1.40;;
1837;SDS011;918;50.796;6.772;2023-07-13T06:11:28;3.23;;;1.10;;
1837;SDS011;918;50.796;6.772;2023-07-13T06:13:55;3.20;;;1.63;;
1837;SDS011;918;50.796;6.772;2023-07-13T06:16:21;4.33;;;1.67;;
1837;SDS011;918;50.796;6.772;2023-07-13T06:18:46;1.97;;;1.13;;
1837;SDS011;918;50.796;6.772;2023-07-13T06:21:15;3.90;;;1.60;;
1837;SDS011;918;50.796;6.772;2023-07-13T06:23:43;2.70;;;1.27;;
1837;SDS011;918;50.796;6.772;2023-07-13T06:26:08;2.70;;;1.70;;
1837;SDS011;918;50.796;6.772;2023-07-13T06:28:34;1.67;;;1.17;;
1837;SDS011;918;50.796;6.772;2023-07-13T06:31:00;2.03;;;1.50;;
1837;SDS011;918;50.796;6.772;2023-07-13T06:33:26;1.73;;;1.20;;
1837;SDS011;918;50.796;6.772;2023-07-13T06:35:52;1.47;;;1.13;;
1837;SDS011;918;50.796;6.772;2023-07-13T06:38:18;2.47;;;1.90;;
1837;SDS011;918;50.796;6.772;2023-07-13T06:40:43;3.00;;;1.57;;
1837;SDS011;918;50.796;6.772;2023-07-13T06:43:08;3.27;;;1.90;;
1837;SDS011;918;50.796;6.772;2023-07-13T06:45:36;3.90;;;2.10;;
1837;SDS011;918;50.796;6.772;2023-07-13T06:48:05;2.47;;;1.30;;
1837;SDS011;918;50.796;6.772;2023-07-13T06:50:31;3.30;;;1.43;;
1837;SDS011;918;50.796;6.772;2023-07-13T06:52:56;3.00;;;1.47;;
1837;SDS011;918;50.796;6.772;2023-07-13T06:55:21;5.93;;;1.40;;
1837;SDS011;918;50.796;6.772;2023-07-13T06:57:47;2.33;;;1.40;;
1837;SDS011;918;50.796;6.772;2023-07-13T07:00:12;3.13;;;1.67;;
1837;SDS011;918;50.796;6.772;2023-07-13T07:02:38;2.73;;;1.27;;
1837;SDS011;918;50.796;6.772;2023-07-13T07:05:03;5.53;;;1.90;;
1837;SDS011;918;50.796;6.772;2023-07-13T07:07:29;5.40;;;1.83;;
1837;SDS011;918;50.796;6.772;2023-07-13T07:09:54;2.27;;;1.20;;
1837;SDS011;918;50.796;6.772;2023-07-13T07:12:19;2.60;;;1.77;;
1837;SDS011;918;50.796;6.772;2023-07-13T07:14:44;4.23;;;1.50;;
1837;SDS011;918;50.796;6.772;2023-07-13T07:17:10;3.50;;;1.47;;
1837;SDS011;918;50.796;6.772;2023-07-13T07:19:35;3.77;;;1.87;;
1837;SDS011;918;50.796;6.772;2023-07-13T07:22:00;2.30;;;1.43;;
1837;SDS011;918;50.796;6.772;2023-07-13T07:24:25;2.57;;;1.60;;
1837;SDS011;918;50.796;6.772;2023-07-13T07:26:51;3.80;;;1.53;;
1837;SDS011;918;50.796;6.772;2023-07-13T07:29:16;2.13;;;1.30;;
1837;SDS011;918;50.796;6.772;2023-07-13T07:31:42;2.67;;;1.60;;
1837;SDS011;918;50.796;6.772;2023-07-13T07:34:07;3.10;;;1.50;;
1837;SDS011;918;50.796;6.772;2023-07-13T07:36:32;2.73;;;1.60;;
1837;SDS011;918;50.796;6.772;2023-07-13T07:38:57;1.70;;;1.60;;
1837;SDS011;918;50.796;6.772;2023-07-13T07:41:23;2.63;;;1.57;;
1837;SDS011;918;50.796;6.772;2023-07-13T07:43:48;1.30;;;1.00;;
1837;SDS011;918;50.796;6.772;2023-07-13T07:46:14;3.13;;;1.57;;
1837;SDS011;918;50.796;6.772;2023-07-13T07:48:39;1.60;;;1.30;;
1837;SDS011;918;50.796;6.772;2023-07-13T07:51:04;2.47;;;1.20;;
1837;SDS011;918;50.796;6.772;2023-07-13T07:53:29;1.67;;;1.20;;
1837;SDS011;918;50.796;6.772;2023-07-13T07:55:55;2.47;;;1.50;;
1837;SDS011;918;50.796;6.772;2023-07-13T07:58:20;2.40;;;1.30;;
1837;SDS011;918;50.796;6.772;2023-07-13T08:00:46;2.73;;;1.53;;
1837;SDS011;918;50.796;6.772;2023-07-13T08:03:11;1.90;;;1.37;;
1837;SDS011;918;50.796;6.772;2023-07-13T08:05:37;2.37;;;1.60;;
1837;SDS011;918;50.796;6.772;2023-07-13T08:08:02;2.00;;;1.43;;
1837;SDS011;918;50.796;6.772;2023-07-13T08:10:28;2.03;;;1.37;;
1837;SDS011;918;50.796;6.772;2023-07-13T08:12:53;1.27;;;1.10;;
1837;SDS011;918;50.796;6.772;2023-07-13T08:15:18;1.30;;;1.13;;
1837;SDS011;918;50.796;6.772;2023-07-13T08:17:45;1.90;;;1.17;;
1837;SDS011;918;50.796;6.772;2023-07-13T08:20:12;2.30;;;1.20;;
1837;SDS011;918;50.796;6.772;2023-07-13T08:22:37;1.43;;;1.20;;
1837;SDS011;918;50.796;6.772;2023-07-13T08:25:02;3.80;;;1.63;;
1837;SDS011;918;50.796;6.772;2023-07-13T08:27:28;2.30;;;1.23;;
1837;SDS011;918;50.796;6.772;2023-07-13T08:29:53;3.30;;;1.40;;
1837;SDS011;918;50.796;6.772;2023-07-13T08:32:19;4.77;;;1.50;;
1837;SDS011;918;50.796;6.772;2023-07-13T08:34:45;2.43;;;1.57;;
1837;SDS011;918;50.796;6.772;2023-07-13T08:37:11;3.10;;;1.40;;
1837;SDS011;918;50.796;6.772;2023-07-13T08:39:37;3.60;;;1.73;;
1837;SDS011;918;50.796;6.772;2023-07-13T08:42:07;2.40;;;1.40;;
1837;SDS011;918;50.796;6.772;2023-07-13T08:44:39;1.20;;;1.07;;
1837;SDS011;918;50.796;6.772;2023-07-13T08:47:11;3.23;;;1.60;;
1837;SDS011;918;50.796;6.772;2023-07-13T08:49:39;2.20;;;1.17;;
1837;SDS011;918;50.796;6.772;2023-07-13T08:52:07;2.27;;;1.33;;
1837;SDS011;918;50.796;6.772;2023-07-13T08:54:40;2.90;;;1.40;;
1837;SDS011;918;50.796;6.772;2023-07-13T08:57:16;3.07;;;1.27;;
1837;SDS011;918;50.796;6.772;2023-07-13T08:59:43;4.90;;;2.43;;
1837;SDS011;918;50.796;6.772;2023-07-13T09:04:41;2.70;;;1.40;;
1837;SDS011;918;50.796;6.772;2023-07-13T09:12:28;3.00;;;1.50;;
1837;SDS011;918;50.796;6.772;2023-07-13T09:14:55;2.93;;;1.50;;
1837;SDS011;918;50.796;6.772;2023-07-13T09:17:24;1.90;;;1.63;;
1837;SDS011;918;50.796;6.772;2023-07-13T09:19:57;2.40;;;1.27;;
1837;SDS011;918;50.796;6.772;2023-07-13T09:22:25;1.83;;;1.57;;
1837;SDS011;918;50.796;6.772;2023-07-13T09:27:24;2.80;;;1.90;;
1837;SDS011;918;50.796;6.772;2023-07-13T09:29:57;2.03;;;1.40;;
1837;SDS011;918;50.796;6.772;2023-07-13T09:32:27;2.00;;;1.73;;
1837;SDS011;918;50.796;6.772;2023-07-13T09:34:54;3.37;;;1.50;;
1837;SDS011;918;50.796;6.772;2023-07-13T09:37:26;2.80;;;1.57;;
1837;SDS011;918;50.796;6.772;2023-07-13T09:39:54;2.10;;;1.37;;
1837;SDS011;918;50.796;6.772;2023-07-13T09:42:21;3.40;;;1.40;;
1837;SDS011;918;50.796;6.772;2023-07-13T09:47:15;2.73;;;1.43;;
1837;SDS011;918;50.796;6.772;2023-07-13T09:50:04;2.60;;;1.40;;
1837;SDS011;918;50.796;6.772;2023-07-13T09:52:45;2.27;;;1.33;;
1837;SDS011;918;50.796;6.772;2023-07-13T09:55:57;1.90;;;1.03;;
1837;SDS011;918;50.796;6.772;2023-07-13T09:58:06;2.90;;;1.27;;
1837;SDS011;918;50.796;6.772;2023-07-13T10:00:35;2.20;;;1.30;;
1837;SDS011;918;50.796;6.772;2023-07-13T10:03:05;1.90;;;1.00;;
1837;SDS011;918;50.796;6.772;2023-07-13T10:05:42;2.17;;;1.30;;
1837;SDS011;918;50.796;6.772;2023-07-13T10:08:16;2.33;;;1.23;;
1837;SDS011;918;50.796;6.772;2023-07-13T10:10:43;2.17;;;1.17;;
1837;SDS011;918;50.796;6.772;2023-07-13T10:13:22;1.47;;;1.13;;
1837;SDS011;918;50.796;6.772;2023-07-13T10:15:50;1.30;;;1.03;;
1837;SDS011;918;50.796;6.772;2023-07-13T10:18:16;2.90;;;1.27;;
1837;SDS011;918;50.796;6.772;2023-07-13T10:20:42;1.57;;;1.10;;
1837;SDS011;918;50.796;6.772;2023-07-13T10:23:11;2.30;;;1.20;;
1837;SDS011;918;50.796;6.772;2023-07-13T10:25:41;1.70;;;1.10;;
1837;SDS011;918;50.796;6.772;2023-07-13T10:28:12;1.47;;;1.17;;
1837;SDS011;918;50.796;6.772;2023-07-13T10:30:41;1.30;;;1.20;;
1837;SDS011;918;50.796;6.772;2023-07-13T10:33:10;1.67;;;1.00;;
1837;SDS011;918;50.796;6.772;2023-07-13T10:35:36;1.60;;;1.10;;
1837;SDS011;918;50.796;6.772;2023-07-13T10:38:06;1.47;;;1.10;;
1837;SDS011;918;50.796;6.772;2023-07-13T10:40:39;1.27;;;0.90;;
1837;SDS011;918;50.796;6.772;2023-07-13T10:43:22;2.17;;;1.27;;
1837;SDS011;918;50.796;6.772;2023-07-13T10:45:57;2.53;;;1.30;;
1837;SDS011;918;50.796;6.772;2023-07-13T10:48:24;3.00;;;1.50;;
1837;SDS011;918;50.796;6.772;2023-07-13T10:50:50;3.20;;;1.10;;
1837;SDS011;918;50.796;6.772;2023-07-13T10:53:34;1.40;;;1.10;;
1837;SDS011;918;50.796;6.772;2023-07-13T10:59:01;2.23;;;1.40;;
1837;SDS011;918;50.796;6.772;2023-07-13T11:01:55;2.97;;;1.30;;
1837;SDS011;918;50.796;6.772;2023-07-13T11:04:23;1.67;;;1.57;;
1837;SDS011;918;50.796;6.772;2023-07-13T11:06:50;1.70;;;1.00;;
1837;SDS011;918;50.796;6.772;2023-07-13T11:09:38;1.30;;;1.20;;
1837;SDS011;918;50.796;6.772;2023-07-13T11:19:52;2.67;;;1.33;;
1837;SDS011;918;50.796;6.772;2023-07-13T11:22:22;1.30;;;1.10;;
1837;SDS011;918;50.796;6.772;2023-07-13T11:25:26;1.20;;;1.00;;
1837;SDS011;918;50.796;6.772;2023-07-13T11:33:02;1.60;;;1.07;;
1837;SDS011;918;50.796;6.772;2023-07-13T11:35:35;2.67;;;1.10;;
1837;SDS011;918;50.796;6.772;2023-07-13T11:38:03;1.70;;;1.27;;
1837;SDS011;918;50.796;6.772;2023-07-13T11:40:37;1.50;;;1.30;;
1837;SDS011;918;50.796;6.772;2023-07-13T11:43:02;1.73;;;1.40;;
1837;SDS011;918;50.796;6.772;2023-07-13T11:45:32;2.03;;;1.10;;
1837;SDS011;918;50.796;6.772;2023-07-13T11:47:57;1.63;;;1.20;;
1837;SDS011;918;50.796;6.772;2023-07-13T11:50:25;1.50;;;1.40;;
1837;SDS011;918;50.796;6.772;2023-07-13T11:52:51;2.33;;;1.60;;
1837;SDS011;918;50.796;6.772;2023-07-13T11:55:19;2.10;;;1.40;;
1837;SDS011;918;50.796;6.772;2023-07-13T11:57:47;2.10;;;1.90;;
1837;SDS011;918;50.796;6.772;2023-07-13T12:00:17;1.50;;;1.37;;
1837;SDS011;918;50.796;6.772;2023-07-13T12:02:46;2.50;;;1.53;;
1837;SDS011;918;50.796;6.772;2023-07-13T12:05:17;1.80;;;1.10;;
1837;SDS011;918;50.796;6.772;2023-07-13T12:07:43;2.03;;;1.53;;
1837;SDS011;918;50.796;6.772;2023-07-13T12:12:37;2.03;;;1.40;;
1837;SDS011;918;50.796;6.772;2023-07-13T12:15:08;1.90;;;1.17;;
1837;SDS011;918;50.796;6.772;2023-07-13T12:17:34;3.57;;;1.40;;
1837;SDS011;918;50.796;6.772;2023-07-13T12:20:00;2.10;;;1.20;;
1837;SDS011;918;50.796;6.772;2023-07-13T12:22:25;1.40;;;1.07;;
1837;SDS011;918;50.796;6.772;2023-07-13T12:24:52;1.77;;;1.67;;
1837;SDS011;918;50.796;6.772;2023-07-13T12:30:01;3.00;;;1.30;;
1837;SDS011;918;50.796;6.772;2023-07-13T12:32:27;2.07;;;1.53;;
1837;SDS011;918;50.796;6.772;2023-07-13T12:34:55;3.03;;;1.43;;
1837;SDS011;918;50.796;6.772;2023-07-13T12:37:23;3.33;;;1.97;;
1837;SDS011;918;50.796;6.772;2023-07-13T12:39:49;4.93;;;1.50;;
1837;SDS011;918;50.796;6.772;2023-07-13T12:42:25;2.20;;;1.23;;
1837;SDS011;918;50.796;6.772;2023-07-13T12:45:35;1.70;;;1.60;;
1837;SDS011;918;50.796;6.772;2023-07-13T12:47:49;1.97;;;1.17;;
1837;SDS011;918;50.796;6.772;2023-07-13T12:50:19;1.97;;;1.37;;
1837;SDS011;918;50.796;6.772;2023-07-13T12:52:56;1.80;;;1.20;;
1837;SDS011;918;50.796;6.772;2023-07-13T12:55:26;1.43;;;0.97;;
1837;SDS011;918;50.796;6.772;2023-07-13T12:57:54;2.30;;;1.77;;
1837;SDS011;918;50.796;6.772;2023-07-13T13:00:23;2.50;;;1.57;;
1837;SDS011;918;50.796;6.772;2023-07-13T13:02:50;1.90;;;1.30;;
1837;SDS011;918;50.796;6.772;2023-07-13T13:05:16;2.60;;;1.27;;
1837;SDS011;918;50.796;6.772;2023-07-13T13:07:41;2.27;;;1.43;;
1837;SDS011;918;50.796;6.772;2023-07-13T13:10:13;1.33;;;1.20;;
1837;SDS011;918;50.796;6.772;2023-07-13T13:12:39;1.67;;;1.57;;
1837;SDS011;918;50.796;6.772;2023-07-13T13:15:07;1.67;;;1.10;;
1837;SDS011;918;50.796;6.772;2023-07-13T13:17:33;1.57;;;1.20;;
1837;SDS011;918;50.796;6.772;2023-07-13T13:19:59;1.50;;;1.40;;
1837;SDS011;918;50.796;6.772;2023-07-13T13:22:24;1.77;;;1.37;;
1837;SDS011;918;50.796;6.772;2023-07-13T13:24:49;1.27;;;1.17;;
1837;SDS011;918;50.796;6.772;2023-07-13T13:27:15;2.30;;;1.00;;
1837;SDS011;918;50.796;6.772;2023-07-13T13:29:42;1.83;;;1.00;;
1837;SDS011;918;50.796;6.772;2023-07-13T13:32:09;3.33;;;1.13;;
1837;SDS011;918;50.796;6.772;2023-07-13T13:34:36;1.10;;;1.00;;
1837;SDS011;918;50.796;6.772;2023-07-13T13:37:02;1.53;;;1.00;;
1837;SDS011;918;50.796;6.772;2023-07-13T13:39:34;1.53;;;1.40;;
1837;SDS011;918;50.796;6.772;2023-07-13T13:42:00;1.47;;;1.20;;
1837;SDS011;918;50.796;6.772;2023-07-13T13:44:25;2.07;;;1.00;;
1837;SDS011;918;50.796;6.772;2023-07-13T13:46:52;1.47;;;1.37;;
1837;SDS011;918;50.796;6.772;2023-07-13T13:49:19;1.30;;;0.83;;
1837;SDS011;918;50.796;6.772;2023-07-13T13:51:47;1.57;;;1.10;;
1837;SDS011;918;50.796;6.772;2023-07-13T13:54:13;1.73;;;1.20;;
1837;SDS011;918;50.796;6.772;2023-07-13T13:56:41;3.13;;;1.37;;
1837;SDS011;918;50.796;6.772;2023-07-13T13:59:08;1.40;;;1.30;;
1837;SDS011;918;50.796;6.772;2023-07-13T14:01:34;1.37;;;0.90;;
1837;SDS011;918;50.796;6.772;2023-07-13T14:03:59;1.30;;;0.97;;
1837;SDS011;918;50.796;6.772;2023-07-13T14:06:25;2.03;;;1.10;;
1837;SDS011;918;50.796;6.772;2023-07-13T14:08:50;2.27;;;1.30;;
1837;SDS011;918;50.796;6.772;2023-07-13T14:11:16;1.57;;;1.20;;
1837;SDS011;918;50.796;6.772;2023-07-13T14:13:54;2.00;;;1.10;;
1837;SDS011;918;50.796;6.772;2023-07-13T14:16:21;1.33;;;0.90;;
1837;SDS011;918;50.796;6.772;2023-07-13T14:18:48;1.37;;;0.80;;
1837;SDS011;918;50.796;6.772;2023-07-13T14:21:14;2.93;;;1.03;;
1837;SDS011;918;50.796;6.772;2023-07-13T14:23:41;1.77;;;1.20;;
1837;SDS011;918;50.796;6.772;2023-07-13T14:26:09;0.90;;;0.90;;
1837;SDS011;918;50.796;6.772;2023-07-13T14:28:41;3.13;;;1.50;;
1837;SDS011;918;50.796;6.772;2023-07-13T14:31:08;2.17;;;1.00;;
1837;SDS011;918;50.796;6.772;2023-07-13T14:33:33;1.37;;;1.03;;
1837;SDS011;918;50.796;6.772;2023-07-13T14:35:58;3.03;;;1.20;;
1837;SDS011;918;50.796;6.772;2023-07-13T14:38:24;1.70;;;1.30;;
1837;SDS011;918;50.796;6.772;2023-07-13T14:40:49;2.10;;;1.00;;
1837;SDS011;918;50.796;6.772;2023-07-13T14:43:15;2.07;;;1.10;;
1837;SDS011;918;50.796;6.772;2023-07-13T14:45:47;2.00;;;1.03;;
1837;SDS011;918;50.796;6.772;2023-07-13T14:48:17;1.70;;;1.20;;
1837;SDS011;918;50.796;6.772;2023-07-13T14:50:46;0.90;;;0.90;;
1837;SDS011;918;50.796;6.772;2023-07-13T14:53:12;3.93;;;1.30;;
1837;SDS011;918;50.796;6.772;2023-07-13T14:55:38;1.00;;;0.90;;
1837;SDS011;918;50.796;6.772;2023-07-13T14:58:03;2.07;;;1.03;;
1837;SDS011;918;50.796;6.772;2023-07-13T15:00:28;1.63;;;1.20;;
1837;SDS011;918;50.796;6.772;2023-07-13T15:02:54;1.37;;;1.10;;
1837;SDS011;918;50.796;6.772;2023-07-13T15:05:23;1.73;;;1.20;;
1837;SDS011;918;50.796;6.772;2023-07-13T15:07:52;2.77;;;1.17;;
1837;SDS011;918;50.796;6.772;2023-07-13T15:10:22;1.80;;;1.57;;
1837;SDS011;918;50.796;6.772;2023-07-13T15:12:51;3.63;;;1.20;;
1837;SDS011;918;50.796;6.772;2023-07-13T15:15:17;1.63;;;1.20;;
1837;SDS011;918;50.796;6.772;2023-07-13T15:17:46;2.20;;;1.10;;
1837;SDS011;918;50.796;6.772;2023-07-13T15:22:54;1.53;;;1.20;;
1837;SDS011;918;50.796;6.772;2023-07-13T15:25:21;3.97;;;1.07;;
1837;SDS011;918;50.796;6.772;2023-07-13T15:27:49;2.20;;;1.23;;
1837;SDS011;918;50.796;6.772;2023-07-13T15:30:15;2.70;;;1.37;;
1837;SDS011;918;50.796;6.772;2023-07-13T15:32:43;2.60;;;1.30;;
1837;SDS011;918;50.796;6.772;2023-07-13T15:35:20;1.60;;;1.43;;
1837;SDS011;918;50.796;6.772;2023-07-13T15:37:47;1.80;;;1.17;;
1837;SDS011;918;50.796;6.772;2023-07-13T15:40:13;2.17;;;1.30;;
1837;SDS011;918;50.796;6.772;2023-07-13T15:42:39;2.30;;;1.50;;
1837;SDS011;918;50.796;6.772;2023-07-13T15:45:24;3.97;;;1.40;;
1837;SDS011;918;50.796;6.772;2023-07-13T15:47:49;4.57;;;1.80;;
1837;SDS011;918;50.796;6.772;2023-07-13T15:50:16;1.60;;;1.50;;
1837;SDS011;918;50.796;6.772;2023-07-13T15:52:47;2.70;;;1.60;;
1837;SDS011;918;50.796;6.772;2023-07-13T15:55:14;1.80;;;1.43;;
1837;SDS011;918;50.796;6.772;2023-07-13T15:57:40;1.70;;;1.60;;
1837;SDS011;918;50.796;6.772;2023-07-13T16:00:29;2.03;;;1.20;;
1837;SDS011;918;50.796;6.772;2023-07-13T16:02:54;2.20;;;1.30;;
1837;SDS011;918;50.796;6.772;2023-07-13T16:05:19;3.20;;;1.90;;
1837;SDS011;918;50.796;6.772;2023-07-13T16:07:47;3.73;;;1.90;;
1837;SDS011;918;50.796;6.772;2023-07-13T16:10:14;3.10;;;1.73;;
1837;SDS011;918;50.796;6.772;2023-07-13T16:13:02;4.40;;;2.03;;